Terminal Aerodrome Forecast
Issued by NWS

Home | Current Version | Previous Version | Text Only | Print | Product List | Glossary On
Versions: 1 2 3 4 5 6 7 8 9 10 11 12 13 14 15 16 17 18 19 20 21 22 23 24 25 26 27 28 29 30 31 32 33 34 35 36
000
FTUS41 KBOX 231309 AAA
TAFFMH
TAF AMD
KFMH 231309Z 2313/2412 17015KT 5SM BR VCSH OVC003 WS020/19050KT
     FM231600 18017G31KT 3SM -RA BR OVC003 WS020/20050KT
     FM231800 18018G41KT 2SM RA BR OVC003 WS020/20055KT
     FM232100 18019G38KT 1SM +RA BR OVC003 WS020/20060KT
     FM232300 21016G27KT 3SM BR VCSH OVC003 WS020/22060KT
     FM240000 22015G22KT 3SM BR VCSH OVC003 WS020/23045KT
     FM240200 24012G21KT 6SM BR BKN008
     FM240600 25010G19KT P6SM FEW130=

USA.gov is the U.S. government's official web portal to all federal, state and local government web resources and services.